Lake Kiowa, Texas
Current Conditions -  °F | °C
As of 3:35 PM on Thursday 23 Oct 2014 (Local Time) from KGLE Reporting Station
Scattered Clouds Scattered Clouds  
Wind Chill: 77°   Ceiling: Unl
Heat Index: 79°   Visibility: 10mi
Dew Point: 58°   Wind: 8mph
Humidity: 52%   Direction: 160°SSE
Pressure: 30.09"   Gusts: NA
Location:  33.7001°N, 97.0805°W
Report Text: KGLE 232035Z AUTO 16007KT 10SM SCT048 25/15 A3009 RMK AO2 T02510146
Loading
Personal Weather Stations






























Interactive Weather Map
Tropical Storm Tracking
New forecast layout! Learn more

10-Day Weather Forecast

Advertisements
Track Severe Weather on mobile